Aeroporto :
LOGIN :

Iscrizione | Disclaimer

   EN    FR    IT 

 










Sommario :    VFR   VFR Marginale   IFR   IFR Intensivo   IFR Molto Intensivo
Visibilità : 
Base nubi : 
>= 8 km
>= 3000ft
5 / 8 km
1000 / 3000 ft
1500m / 5 km
500 / 1000 ft
800 / 1500m
200 / 500 ft
< 800m
< 200 ft
Simboli :   Temporali  Nebbia  Neve Forte  Precipitazioni Forti  Vento > 20 kt
SIGMETs :   Varie  Temporali  Ghiacco  Turbolenza  Onda orograficha  Ceneri Vulcaniche






- Altitudine del aeroporto : 191 ft
- Codice IATA : RNB


ESDF - Ronneby

ULTIMO METAR :
  • 190520Z 21008KT 9000 -SHRA BKN008 05/04 Q1002

METARs OBSOLETI :
  • 190450Z AUTO 22010KT 9999 -SHRA BKN008/// OVC010/// 05/04 Q1003
  • 190420Z AUTO 23010KT 200V260 9999 OVC012/// 05/04 Q1003
  • 190350Z AUTO 23009KT 200V270 9999 BKN012/// OVC013/// 05/04 Q1003
  • 190320Z AUTO 23007KT 190V260 9999 BKN012/// BKN015/// OVC028/// 05/04 Q1004
  • 190250Z AUTO 22009KT 190V260 9999 BKN012/// OVC021/// 05/04 Q1004
  • 190220Z AUTO 22007KT 9999 SCT013/// OVC021/// 04/03 Q1004

Previsioni scadute.



MetMap, La meteo Aeronautica in un colpo d'occhio ! - Copyright ORBIFLY Dicembre 2007 - Disclaimer

ORBIFLY MET'MAP TEAM :

Programmazione e sviluppo : Alexandra Zaïnal
Concezione : Baudouin d'Aumeries
Aiuto per la programmazione : Marc-Olivier Méhu
Supporto tecnico e logistico : Manuel Goepfert
Aiuto per la traduzione : Arnaldo La Scala

Contatto : metmap@orbifly.com




FONTI E CREDITI :

   NOAA